Time;durP1;ratioP1;P1;durP2;ratioP2;P2;SDS_P1;SDS_P2;PMS_P1;PMS_P2;Temp;Humidity;BMP_temperature;BMP_pressure;BME280_temperature;BME280_humidity;BME280_pressure;Samples;Min_cycle;Max_cycle;Signal;HPM_P1;HPM_P2
2021/06/14 00:01:49;;;;;;;18.70;16.88;;;;;;;;;;5044125;28;20406;-83
2021/06/14 00:04:16;;;;;;;19.58;17.60;;;;;;;;;;5042310;28;20425;-83
2021/06/14 00:06:44;;;;;;;20.48;18.23;;;;;;;;;;5045589;28;20406;-82
2021/06/14 00:09:14;;;;;;;19.17;17.17;;;;;;;;;;5040627;28;20401;-83
2021/06/14 00:11:41;;;;;;;19.40;17.50;;;;;;;;;;5048788;28;20404;-83
2021/06/14 00:14:08;;;;;;;21.67;19.00;;;;;;;;;;5046107;28;20396;-83
2021/06/14 00:16:36;;;;;;;21.55;19.38;;;;;;;;;;5043478;28;20406;-83
2021/06/14 00:19:04;;;;;;;20.95;18.85;;;;;;;;;;5045532;28;20461;-83
2021/06/14 00:21:31;;;;;;;21.97;19.63;;;;;;;;;;5051009;28;20466;-82
2021/06/14 00:23:59;;;;;;;21.70;19.48;;;;;;;;;;5051046;28;20448;-82
2021/06/14 00:26:26;;;;;;;22.38;20.17;;;;;;;;;;5054101;28;20400;-83
2021/06/14 00:28:53;;;;;;;23.02;20.70;;;;;;;;;;5051766;28;20775;-83
2021/06/14 00:31:20;;;;;;;25.02;22.50;;;;;;;;;;5055025;28;20399;-82
2021/06/14 00:33:47;;;;;;;24.48;21.95;;;;;;;;;;5054566;28;20419;-82
2021/06/14 00:36:14;;;;;;;24.77;22.27;;;;;;;;;;5052916;28;20413;-83
2021/06/14 00:38:42;;;;;;;24.45;21.77;;;;;;;;;;5052399;28;21199;-83
2021/06/14 00:41:12;;;;;;;24.75;22.08;;;;;;;;;;5056016;28;20398;-82
2021/06/14 00:43:39;;;;;;;24.98;22.58;;;;;;;;;;5059316;28;20781;-83
2021/06/14 00:46:08;;;;;;;25.42;22.92;;;;;;;;;;5059671;28;20402;-83
2021/06/14 00:48:35;;;;;;;26.20;22.80;;;;;;;;;;5051353;28;20778;-83
2021/06/14 00:51:04;;;;;;;25.75;23.17;;;;;;;;;;5049885;28;20407;-83
2021/06/14 00:53:32;;;;;;;25.42;23.00;;;;;;;;;;5076458;28;20450;-83
2021/06/14 00:56:01;;;;;;;26.35;23.77;;;;;;;;;;5081271;28;20384;-83
2021/06/14 00:58:29;;;;;;;25.70;23.10;;;;;;;;;;5056171;28;20396;-82
2021/06/14 01:00:56;;;;;;;25.52;22.85;;;;;;;;;;5056307;28;20400;-83
2021/06/14 01:03:25;;;;;;;24.30;21.90;;;;;;;;;;5051579;28;20762;-83
2021/06/14 01:05:54;;;;;;;23.83;21.42;;;;;;;;;;5057677;28;20404;-82
2021/06/14 01:08:21;;;;;;;24.55;22.05;;;;;;;;;;5054730;28;20402;-82
2021/06/14 01:10:50;;;;;;;24.13;21.73;;;;;;;;;;5055034;28;20413;-83
2021/06/14 01:13:29;;;;;;;24.23;21.77;;;;;;;;;;5053947;28;20404;-83
2021/06/14 01:16:05;;;;;;;25.43;22.93;;;;;;;;;;5046575;28;20786;-83
2021/06/14 01:18:38;;;;;;;24.92;22.52;;;;;;;;;;5053540;28;20419;-83
2021/06/14 01:21:12;;;;;;;23.77;21.42;;;;;;;;;;5054792;28;20400;-81
2021/06/14 01:24:06;;;;;;;25.38;22.67;;;;;;;;;;5050211;28;20420;-83
2021/06/14 01:26:41;;;;;;;24.70;22.20;;;;;;;;;;5046669;28;20407;-82
2021/06/14 01:29:11;;;;;;;24.45;21.92;;;;;;;;;;5052432;28;20886;-83
2021/06/14 01:31:39;;;;;;;24.48;22.15;;;;;;;;;;5049199;28;20392;-83
2021/06/14 01:34:08;;;;;;;24.20;21.77;;;;;;;;;;5049521;28;20399;-83
2021/06/14 01:36:37;;;;;;;24.30;22.00;;;;;;;;;;5048706;28;20410;-83
2021/06/14 01:39:06;;;;;;;23.88;21.58;;;;;;;;;;5048253;28;20962;-83
2021/06/14 01:41:34;;;;;;;24.87;22.47;;;;;;;;;;5054407;28;20404;-83
2021/06/14 01:44:03;;;;;;;24.98;22.52;;;;;;;;;;5049474;28;20419;-84
2021/06/14 01:46:35;;;;;;;25.80;23.02;;;;;;;;;;5049662;28;20406;-83
2021/06/14 01:49:04;;;;;;;25.63;23.02;;;;;;;;;;5048973;28;20733;-83
2021/06/14 01:51:33;;;;;;;25.58;23.08;;;;;;;;;;5052355;28;20399;-83
2021/06/14 01:54:04;;;;;;;26.73;24.00;;;;;;;;;;5054272;28;20400;-82
2021/06/14 01:56:33;;;;;;;26.77;24.08;;;;;;;;;;5051938;28;20403;-83
2021/06/14 01:59:01;;;;;;;26.63;23.92;;;;;;;;;;5050290;28;20400;-83
2021/06/14 02:01:32;;;;;;;27.20;24.52;;;;;;;;;;5047355;28;20412;-83
2021/06/14 02:04:00;;;;;;;27.42;24.70;;;;;;;;;;5046185;28;20417;-83
2021/06/14 02:06:30;;;;;;;28.00;25.30;;;;;;;;;;5044543;28;20903;-83
2021/06/14 02:08:58;;;;;;;26.70;24.10;;;;;;;;;;5045213;28;20399;-83
2021/06/14 02:11:26;;;;;;;26.30;23.80;;;;;;;;;;5045983;28;20416;-83
2021/06/14 02:13:54;;;;;;;25.77;23.42;;;;;;;;;;5041822;28;20400;-83
2021/06/14 02:16:21;;;;;;;26.33;23.80;;;;;;;;;;5043045;28;20402;-83
2021/06/14 02:18:50;;;;;;;27.15;24.52;;;;;;;;;;5045052;28;20909;-83
2021/06/14 02:21:17;;;;;;;27.20;24.45;;;;;;;;;;5046340;28;20415;-83
2021/06/14 02:23:44;;;;;;;28.90;25.95;;;;;;;;;;5043950;28;21206;-83
2021/06/14 02:26:11;;;;;;;28.77;25.77;;;;;;;;;;5045986;28;20418;-83
2021/06/14 02:28:38;;;;;;;28.38;25.67;;;;;;;;;;5046013;28;20399;-83
2021/06/14 02:31:06;;;;;;;29.17;26.17;;;;;;;;;;5042512;28;20400;-83
2021/06/14 02:33:33;;;;;;;28.80;26.00;;;;;;;;;;5044577;28;20395;-84
2021/06/14 02:36:02;;;;;;;28.95;26.15;;;;;;;;;;5046124;28;20434;-82
2021/06/14 02:38:29;;;;;;;29.17;26.15;;;;;;;;;;5041122;28;20403;-82
2021/06/14 02:40:57;;;;;;;28.67;25.90;;;;;;;;;;5041205;28;20410;-83
2021/06/14 02:43:25;;;;;;;28.55;25.67;;;;;;;;;;5042347;28;20404;-82
2021/06/14 02:45:53;;;;;;;29.00;26.10;;;;;;;;;;5044696;28;20517;-82
2021/06/14 02:48:22;;;;;;;28.73;25.83;;;;;;;;;;5041966;28;20883;-83
2021/06/14 02:50:50;;;;;;;28.50;25.67;;;;;;;;;;5039700;28;20407;-83
2021/06/14 02:53:23;;;;;;;28.55;25.75;;;;;;;;;;5039650;28;20617;-83
2021/06/14 02:55:56;;;;;;;28.90;25.95;;;;;;;;;;5041124;28;20417;-83
2021/06/14 02:58:29;;;;;;;28.27;25.40;;;;;;;;;;5041362;28;20417;-83
2021/06/14 03:00:56;;;;;;;28.38;25.60;;;;;;;;;;5034255;28;20410;-84
2021/06/14 03:03:23;;;;;;;28.75;25.88;;;;;;;;;;5038866;28;20396;-82
2021/06/14 03:05:50;;;;;;;28.15;25.30;;;;;;;;;;5034260;28;20434;-83
2021/06/14 03:08:19;;;;;;;28.17;25.48;;;;;;;;;;5034600;28;20400;-83
2021/06/14 03:10:47;;;;;;;28.42;25.52;;;;;;;;;;5034059;28;20831;-83
2021/06/14 03:13:14;;;;;;;27.77;24.98;;;;;;;;;;5035570;28;20433;-84
2021/06/14 03:15:43;;;;;;;28.15;25.25;;;;;;;;;;5039138;28;20423;-83
2021/06/14 03:18:11;;;;;;;27.92;25.15;;;;;;;;;;5035038;28;20905;-84
2021/06/14 03:20:40;;;;;;;28.48;25.67;;;;;;;;;;5037523;28;20399;-83
2021/06/14 03:23:08;;;;;;;28.63;25.77;;;;;;;;;;5035005;28;20908;-83
2021/06/14 03:25:37;;;;;;;26.87;24.33;;;;;;;;;;5035999;28;20529;-83
2021/06/14 03:28:07;;;;;;;25.88;23.42;;;;;;;;;;5035086;28;20405;-84
2021/06/14 03:30:35;;;;;;;26.45;23.80;;;;;;;;;;5034190;28;20402;-84
2021/06/14 03:33:05;;;;;;;25.48;22.98;;;;;;;;;;5037220;28;20408;-84
2021/06/14 03:35:33;;;;;;;24.65;22.05;;;;;;;;;;5033544;28;20406;-84
2021/06/14 03:38:00;;;;;;;24.33;21.73;;;;;;;;;;5034775;28;20400;-83
2021/06/14 03:40:27;;;;;;;23.63;21.23;;;;;;;;;;5035183;28;20440;-84
2021/06/14 03:43:00;;;;;;;23.52;21.13;;;;;;;;;;5032548;28;20459;-84
2021/06/14 03:45:27;;;;;;;23.20;20.85;;;;;;;;;;5036507;28;20436;-84
2021/06/14 03:47:55;;;;;;;22.92;20.52;;;;;;;;;;5037617;28;20488;-83
2021/06/14 03:50:22;;;;;;;22.50;20.20;;;;;;;;;;5034418;28;20437;-83
2021/06/14 03:52:49;;;;;;;22.52;20.30;;;;;;;;;;5036162;28;20413;-83
2021/06/14 03:55:17;;;;;;;20.48;18.45;;;;;;;;;;5034541;28;20397;-84
2021/06/14 03:57:44;;;;;;;20.25;18.17;;;;;;;;;;5033509;28;20415;-84
2021/06/14 04:00:15;;;;;;;21.35;19.15;;;;;;;;;;5034420;28;20791;-84
2021/06/14 04:02:42;;;;;;;19.95;17.88;;;;;;;;;;5032584;28;20407;-84
2021/06/14 04:05:10;;;;;;;19.90;17.75;;;;;;;;;;5037672;28;20819;-83
2021/06/14 04:07:37;;;;;;;19.20;17.10;;;;;;;;;;5041037;28;20482;-84
2021/06/14 04:10:06;;;;;;;19.58;17.50;;;;;;;;;;5043785;28;20403;-83
2021/06/14 04:12:33;;;;;;;19.03;17.23;;;;;;;;;;5043835;28;20402;-84
2021/06/14 04:15:01;;;;;;;19.63;17.63;;;;;;;;;;5045301;28;20414;-84
2021/06/14 04:17:29;;;;;;;19.13;17.10;;;;;;;;;;5042956;28;20776;-84
2021/06/14 04:19:56;;;;;;;19.73;17.50;;;;;;;;;;5046485;28;20401;-83
2021/06/14 04:22:23;;;;;;;18.50;16.57;;;;;;;;;;5044850;28;20401;-83
2021/06/14 04:24:50;;;;;;;17.23;15.00;;;;;;;;;;5048387;28;20463;-83
2021/06/14 04:27:17;;;;;;;17.23;15.52;;;;;;;;;;5043011;28;20422;-84
2021/06/14 04:29:44;;;;;;;16.92;15.23;;;;;;;;;;5043330;28;20399;-84
2021/06/14 04:32:11;;;;;;;14.57;13.07;;;;;;;;;;5048747;28;20408;-83
2021/06/14 04:34:40;;;;;;;14.63;13.17;;;;;;;;;;5041037;28;20424;-84
2021/06/14 04:37:07;;;;;;;14.77;13.38;;;;;;;;;;5043079;28;20404;-84
2021/06/14 04:39:34;;;;;;;14.63;13.15;;;;;;;;;;5041948;28;20922;-83
2021/06/14 04:42:01;;;;;;;15.35;13.52;;;;;;;;;;5044543;28;20786;-84
2021/06/14 04:44:28;;;;;;;15.93;14.32;;;;;;;;;;5044217;28;20402;-83
2021/06/14 04:46:55;;;;;;;16.05;14.35;;;;;;;;;;5045233;28;20478;-84
2021/06/14 04:49:22;;;;;;;15.75;14.20;;;;;;;;;;5045648;28;20410;-84
2021/06/14 04:51:52;;;;;;;14.95;13.27;;;;;;;;;;5044248;28;20399;-83
2021/06/14 04:54:19;;;;;;;14.82;13.43;;;;;;;;;;5047557;28;20433;-83
2021/06/14 04:56:46;;;;;;;15.18;13.68;;;;;;;;;;5043001;28;20424;-84
2021/06/14 04:59:13;;;;;;;14.88;13.48;;;;;;;;;;5046111;28;20400;-84
2021/06/14 05:01:40;;;;;;;15.07;13.55;;;;;;;;;;5040174;28;20765;-83
2021/06/14 05:04:07;;;;;;;15.15;13.60;;;;;;;;;;5043271;28;20396;-83
2021/06/14 05:06:34;;;;;;;15.30;13.80;;;;;;;;;;5044059;28;20438;-84
2021/06/14 05:09:02;;;;;;;14.20;12.82;;;;;;;;;;5049083;28;20414;-84
2021/06/14 05:11:29;;;;;;;14.18;12.82;;;;;;;;;;5058779;28;20388;-84
2021/06/14 05:13:56;;;;;;;12.90;11.63;;;;;;;;;;5076878;28;20454;-84
2021/06/14 05:16:23;;;;;;;12.27;10.93;;;;;;;;;;5069584;28;20382;-84
2021/06/14 05:18:50;;;;;;;12.23;11.02;;;;;;;;;;5049315;28;20442;-84
2021/06/14 05:21:17;;;;;;;11.95;10.70;;;;;;;;;;5048951;28;20430;-84
2021/06/14 05:23:44;;;;;;;10.88;9.80;;;;;;;;;;5047490;28;20400;-84
2021/06/14 05:26:12;;;;;;;12.07;9.60;;;;;;;;;;5048528;28;20419;-84
2021/06/14 05:28:39;;;;;;;11.45;8.70;;;;;;;;;;5049084;28;20410;-83
2021/06/14 05:31:06;;;;;;;9.52;8.40;;;;;;;;;;5044131;28;20402;-84
2021/06/14 05:33:33;;;;;;;10.90;9.07;;;;;;;;;;5049692;28;20408;-83
2021/06/14 05:36:00;;;;;;;11.47;8.87;;;;;;;;;;5045961;28;20403;-83
2021/06/14 05:38:27;;;;;;;9.85;8.85;;;;;;;;;;5045718;28;20770;-83
2021/06/14 05:40:54;;;;;;;8.50;7.70;;;;;;;;;;5050129;28;20406;-82
2021/06/14 05:43:22;;;;;;;8.45;7.63;;;;;;;;;;5047053;28;20408;-83
2021/06/14 05:45:49;;;;;;;9.60;8.00;;;;;;;;;;5046324;28;20420;-83
2021/06/14 05:48:16;;;;;;;8.68;7.78;;;;;;;;;;5050054;28;20404;-81
2021/06/14 05:50:43;;;;;;;8.98;7.45;;;;;;;;;;5047683;28;20756;-81
2021/06/14 05:53:11;;;;;;;9.13;7.70;;;;;;;;;;5048037;28;20744;-83
2021/06/14 05:55:39;;;;;;;10.40;7.85;;;;;;;;;;5047639;28;20407;-80
2021/06/14 05:58:06;;;;;;;9.38;7.60;;;;;;;;;;5047848;28;20400;-82
2021/06/14 06:00:34;;;;;;;9.60;8.30;;;;;;;;;;5049296;28;20406;-83
2021/06/14 06:03:02;;;;;;;10.73;7.38;;;;;;;;;;5048871;28;20459;-84
2021/06/14 06:05:29;;;;;;;8.18;7.00;;;;;;;;;;5044191;28;20777;-84
2021/06/14 06:07:56;;;;;;;11.30;7.03;;;;;;;;;;5047280;28;21115;-84
2021/06/14 06:10:23;;;;;;;8.93;6.43;;;;;;;;;;5049220;28;20432;-83
2021/06/14 06:12:49;;;;;;;8.95;5.90;;;;;;;;;;5053504;28;20411;-85
2021/06/14 06:15:20;;;;;;;7.72;5.47;;;;;;;;;;5055846;28;20405;-83
2021/06/14 06:17:48;;;;;;;5.60;5.05;;;;;;;;;;5048917;28;20398;-84
2021/06/14 06:20:17;;;;;;;9.07;5.70;;;;;;;;;;5060825;28;20458;-83
2021/06/14 06:22:44;;;;;;;6.22;4.97;;;;;;;;;;5054172;28;20399;-83
2021/06/14 06:25:14;;;;;;;7.03;4.90;;;;;;;;;;5052310;28;20432;-83
2021/06/14 06:27:41;;;;;;;6.90;4.67;;;;;;;;;;5046995;28;20760;-83
2021/06/14 06:30:10;;;;;;;5.90;5.05;;;;;;;;;;5045083;28;20400;-83
2021/06/14 06:32:37;;;;;;;7.82;4.95;;;;;;;;;;5044136;28;20887;-82
2021/06/14 06:35:07;;;;;;;6.50;4.97;;;;;;;;;;5043128;28;20415;-83
2021/06/14 06:37:34;;;;;;;9.93;5.00;;;;;;;;;;5047205;28;20395;-83
2021/06/14 06:40:01;;;;;;;7.13;4.95;;;;;;;;;;5048290;28;20438;-83
2021/06/14 06:42:28;;;;;;;9.65;4.40;;;;;;;;;;5047510;28;20750;-83
2021/06/14 06:44:55;;;;;;;7.20;4.70;;;;;;;;;;5043416;28;20398;-83
2021/06/14 06:47:22;;;;;;;6.63;4.60;;;;;;;;;;5046879;28;20422;-83
2021/06/14 06:49:49;;;;;;;4.63;4.00;;;;;;;;;;5043304;28;20499;-83
2021/06/14 06:52:17;;;;;;;6.03;4.22;;;;;;;;;;5046723;28;20399;-83
2021/06/14 06:54:44;;;;;;;6.43;4.50;;;;;;;;;;5046496;28;20478;-82
2021/06/14 06:57:13;;;;;;;4.57;4.03;;;;;;;;;;5047113;28;20407;-83
2021/06/14 06:59:40;;;;;;;6.13;4.05;;;;;;;;;;5047446;28;20407;-82
2021/06/14 07:02:08;;;;;;;4.40;3.88;;;;;;;;;;5047175;28;20410;-82
2021/06/14 07:04:36;;;;;;;5.88;3.58;;;;;;;;;;5046223;28;20392;-83
2021/06/14 07:07:05;;;;;;;6.80;3.67;;;;;;;;;;5045310;28;20427;-83
2021/06/14 07:09:33;;;;;;;8.57;4.10;;;;;;;;;;5044799;28;20396;-82
2021/06/14 07:12:00;;;;;;;5.72;3.75;;;;;;;;;;5048927;28;20900;-83
2021/06/14 07:14:27;;;;;;;7.85;4.22;;;;;;;;;;5045145;28;20408;-83
2021/06/14 07:16:54;;;;;;;5.20;3.92;;;;;;;;;;5045082;28;20404;-83
2021/06/14 07:19:22;;;;;;;4.85;3.88;;;;;;;;;;5046120;28;20399;-83
2021/06/14 07:21:49;;;;;;;4.73;3.90;;;;;;;;;;5045492;28;21406;-83
2021/06/14 07:24:16;;;;;;;5.40;4.00;;;;;;;;;;5045839;28;20407;-83
2021/06/14 07:26:44;;;;;;;7.45;3.88;;;;;;;;;;5045320;28;20840;-83
2021/06/14 07:29:12;;;;;;;5.55;3.60;;;;;;;;;;5044985;28;20888;-84
2021/06/14 07:31:38;;;;;;;7.37;3.60;;;;;;;;;;5041016;28;20395;-83
2021/06/14 07:34:08;;;;;;;5.57;3.93;;;;;;;;;;5041956;28;20415;-83
2021/06/14 07:36:35;;;;;;;6.55;3.95;;;;;;;;;;5041820;28;20408;-84
2021/06/14 07:39:02;;;;;;;7.50;3.85;;;;;;;;;;5044798;28;20902;-83
2021/06/14 07:41:29;;;;;;;6.82;3.90;;;;;;;;;;5048027;28;20407;-83
2021/06/14 07:43:57;;;;;;;6.25;3.85;;;;;;;;;;5040435;28;20416;-83
2021/06/14 07:46:24;;;;;;;8.27;3.80;;;;;;;;;;5047890;28;20426;-83
2021/06/14 07:48:52;;;;;;;6.88;4.45;;;;;;;;;;5043547;28;20902;-83
2021/06/14 07:51:18;;;;;;;4.83;4.43;;;;;;;;;;5046205;28;20400;-83
2021/06/14 07:53:49;;;;;;;5.37;4.20;;;;;;;;;;5044808;28;20404;-84
2021/06/14 07:56:16;;;;;;;6.00;4.03;;;;;;;;;;5049424;28;20407;-83
2021/06/14 07:58:43;;;;;;;5.93;4.10;;;;;;;;;;5047257;28;20430;-84
2021/06/14 08:01:11;;;;;;;6.57;4.35;;;;;;;;;;5045973;28;20767;-83
2021/06/14 08:03:38;;;;;;;4.80;4.35;;;;;;;;;;5045027;28;20402;-82
2021/06/14 08:06:05;;;;;;;7.20;4.30;;;;;;;;;;5042658;28;20430;-82
2021/06/14 08:08:33;;;;;;;8.82;4.38;;;;;;;;;;5042866;28;20403;-82
2021/06/14 08:11:01;;;;;;;6.47;4.43;;;;;;;;;;5042889;28;20762;-82
2021/06/14 08:13:28;;;;;;;6.13;4.35;;;;;;;;;;5042767;28;20398;-82
2021/06/14 08:15:58;;;;;;;6.10;5.00;;;;;;;;;;5045339;28;20414;-82
2021/06/14 08:18:41;;;;;;;11.82;5.63;;;;;;;;;;5045146;28;20514;-82
2021/06/14 08:26:46;;;;;;;9.50;5.20;;;;;;;;;;5067555;28;20396;-82
2021/06/14 08:29:14;;;;;;;7.82;5.20;;;;;;;;;;5071700;28;20398;-82
2021/06/14 08:31:43;;;;;;;6.38;5.30;;;;;;;;;;5059496;28;20484;-82
2021/06/14 08:34:11;;;;;;;9.82;5.25;;;;;;;;;;5072546;28;20409;-83
2021/06/14 08:36:38;;;;;;;7.50;5.50;;;;;;;;;;5072807;28;20399;-82
2021/06/14 08:39:07;;;;;;;7.05;5.50;;;;;;;;;;5070402;28;20892;-82
2021/06/14 08:41:34;;;;;;;6.30;5.13;;;;;;;;;;5078032;28;20455;-83
2021/06/14 08:44:01;;;;;;;7.22;6.05;;;;;;;;;;5083258;28;20417;-82
2021/06/14 08:46:29;;;;;;;8.20;6.25;;;;;;;;;;5077068;28;20406;-82
2021/06/14 08:48:56;;;;;;;6.90;5.53;;;;;;;;;;5056207;28;20407;-82
2021/06/14 08:51:23;;;;;;;7.50;5.60;;;;;;;;;;5066711;28;20776;-82
2021/06/14 08:53:52;;;;;;;6.88;5.80;;;;;;;;;;5089807;28;20403;-82
2021/06/14 08:56:22;;;;;;;10.82;6.50;;;;;;;;;;5089022;28;20392;-82
2021/06/14 08:58:50;;;;;;;11.77;6.72;;;;;;;;;;5076273;28;20399;-82
2021/06/14 09:01:17;;;;;;;9.52;7.10;;;;;;;;;;5066529;28;20395;-82
2021/06/14 09:03:45;;;;;;;10.23;7.47;;;;;;;;;;5068690;28;20423;-82
2021/06/14 09:06:12;;;;;;;8.77;7.00;;;;;;;;;;5066028;28;20409;-83
2021/06/14 09:08:39;;;;;;;10.18;6.30;;;;;;;;;;5069809;28;20405;-82
2021/06/14 09:11:10;;;;;;;10.18;6.78;;;;;;;;;;5062406;28;20407;-81
2021/06/14 09:13:39;;;;;;;9.37;7.23;;;;;;;;;;5069199;28;20401;-82
2021/06/14 09:16:08;;;;;;;12.20;7.65;;;;;;;;;;5057750;28;20407;-82
2021/06/14 09:18:36;;;;;;;10.02;7.82;;;;;;;;;;5066417;28;20411;-81
2021/06/14 09:21:05;;;;;;;10.60;6.72;;;;;;;;;;5056081;28;20425;-82
2021/06/14 09:23:47;;;;;;;7.73;6.93;;;;;;;;;;5055450;28;20436;-82
2021/06/14 09:26:30;;;;;;;11.00;7.10;;;;;;;;;;5059944;28;20807;-83
2021/06/14 09:29:00;;;;;;;9.38;7.22;;;;;;;;;;5066687;28;20457;-82
2021/06/14 09:31:31;;;;;;;10.02;8.38;;;;;;;;;;5062258;28;20489;-82
2021/06/14 09:33:59;;;;;;;10.57;7.93;;;;;;;;;;5058163;28;20406;-82
2021/06/14 09:36:26;;;;;;;8.80;7.80;;;;;;;;;;5058411;28;20402;-82
2021/06/14 09:38:53;;;;;;;8.73;6.85;;;;;;;;;;5048573;28;20471;-82
2021/06/14 09:41:24;;;;;;;9.77;7.43;;;;;;;;;;5054285;28;20402;-82
2021/06/14 09:43:52;;;;;;;8.80;6.18;;;;;;;;;;5053175;28;20435;-82
2021/06/14 09:46:28;;;;;;;10.43;7.00;;;;;;;;;;5046595;28;20401;-82
2021/06/14 09:48:57;;;;;;;9.63;6.75;;;;;;;;;;5051315;28;20431;-82
2021/06/14 09:51:25;;;;;;;7.70;6.93;;;;;;;;;;5055250;28;20896;-82
2021/06/14 09:53:54;;;;;;;7.85;7.03;;;;;;;;;;5053343;28;20409;-82
2021/06/14 09:56:23;;;;;;;10.85;7.57;;;;;;;;;;5058083;28;20489;-83
2021/06/14 09:58:51;;;;;;;10.50;6.93;;;;;;;;;;5052554;28;20496;-82
2021/06/14 10:01:28;;;;;;;7.00;6.25;;;;;;;;;;5054322;28;20398;-82
2021/06/14 10:03:57;;;;;;;8.05;6.53;;;;;;;;;;5053348;28;20432;-82
2021/06/14 10:06:35;;;;;;;9.35;6.15;;;;;;;;;;5056650;28;20480;-82
2021/06/14 10:09:03;;;;;;;6.65;5.25;;;;;;;;;;5054828;28;20422;-82
2021/06/14 10:11:34;;;;;;;8.57;5.67;;;;;;;;;;5055514;28;20492;-82
2021/06/14 10:14:12;;;;;;;7.60;5.65;;;;;;;;;;5053553;28;20481;-82
2021/06/14 10:16:42;;;;;;;7.75;5.28;;;;;;;;;;5050610;28;20494;-82
2021/06/14 10:19:13;;;;;;;7.18;5.97;;;;;;;;;;5048302;28;20405;-82
2021/06/14 10:21:44;;;;;;;7.13;5.00;;;;;;;;;;5046878;28;20406;-82
2021/06/14 10:24:18;;;;;;;7.57;4.28;;;;;;;;;;5044422;28;20428;-82
2021/06/14 10:26:48;;;;;;;4.75;3.95;;;;;;;;;;5046813;28;20411;-82
2021/06/14 10:29:18;;;;;;;6.53;4.22;;;;;;;;;;5040188;28;20712;-82
2021/06/14 10:31:50;;;;;;;5.95;4.30;;;;;;;;;;5040401;28;21254;-81
2021/06/14 10:34:19;;;;;;;6.43;4.20;;;;;;;;;;5043294;28;20416;-82
2021/06/14 10:36:52;;;;;;;5.50;4.35;;;;;;;;;;5040423;28;20411;-81
2021/06/14 10:39:22;;;;;;;5.72;4.40;;;;;;;;;;5041268;28;20766;-82
2021/06/14 10:41:50;;;;;;;7.18;3.85;;;;;;;;;;5037750;28;20521;-83
2021/06/14 10:44:21;;;;;;;4.67;4.00;;;;;;;;;;5045958;28;21007;-80
2021/06/14 10:46:51;;;;;;;4.47;3.47;;;;;;;;;;5034419;28;21326;-82
2021/06/14 10:49:20;;;;;;;5.35;3.97;;;;;;;;;;5040615;28;20394;-83
2021/06/14 10:51:58;;;;;;;6.82;3.85;;;;;;;;;;5036913;28;20768;-82
2021/06/14 10:54:39;;;;;;;7.25;3.90;;;;;;;;;;5042897;28;20423;-81
2021/06/14 10:57:12;;;;;;;7.28;4.40;;;;;;;;;;5042855;28;20412;-81
2021/06/14 10:59:42;;;;;;;6.35;3.83;;;;;;;;;;5053175;28;20408;-83
2021/06/14 11:02:14;;;;;;;7.00;4.10;;;;;;;;;;5058040;28;20394;-83
2021/06/14 11:04:43;;;;;;;5.05;4.20;;;;;;;;;;5060405;28;20455;-82
2021/06/14 11:07:14;;;;;;;6.25;3.90;;;;;;;;;;5035849;28;20517;-81
2021/06/14 11:09:43;;;;;;;5.97;3.90;;;;;;;;;;5039112;28;20407;-83
2021/06/14 11:12:13;;;;;;;6.75;3.97;;;;;;;;;;5045518;28;20755;-83
2021/06/14 11:14:43;;;;;;;5.07;3.95;;;;;;;;;;5038151;28;20467;-83
2021/06/14 11:17:25;;;;;;;5.20;3.67;;;;;;;;;;5038116;28;20408;-83
2021/06/14 11:20:09;;;;;;;6.13;3.75;;;;;;;;;;5039540;28;20413;-82
2021/06/14 11:22:39;;;;;;;7.22;3.90;;;;;;;;;;5035887;28;20417;-82
2021/06/14 11:25:20;;;;;;;5.32;3.80;;;;;;;;;;5038540;28;20418;-83
2021/06/14 11:27:49;;;;;;;8.37;4.30;;;;;;;;;;5040071;28;20510;-83
2021/06/14 11:30:20;;;;;;;6.25;3.70;;;;;;;;;;5044216;28;20466;-81
2021/06/14 11:32:51;;;;;;;7.73;3.87;;;;;;;;;;5046550;28;20425;-82
2021/06/14 11:35:21;;;;;;;4.15;3.65;;;;;;;;;;5037589;28;20396;-81
2021/06/14 11:37:51;;;;;;;5.78;3.67;;;;;;;;;;5040055;28;20905;-81
2021/06/14 11:40:28;;;;;;;6.38;3.80;;;;;;;;;;5045095;28;20817;-83
2021/06/14 11:43:00;;;;;;;7.50;3.92;;;;;;;;;;5052182;28;20421;-81
2021/06/14 11:45:30;;;;;;;5.97;3.95;;;;;;;;;;5043123;28;20932;-82
2021/06/14 11:48:01;;;;;;;7.90;3.88;;;;;;;;;;5044909;28;20400;-81
2021/06/14 11:50:31;;;;;;;5.53;3.90;;;;;;;;;;5049779;28;20411;-82
2021/06/14 11:53:04;;;;;;;5.78;3.80;;;;;;;;;;5031605;28;20422;-82
2021/06/14 11:55:34;;;;;;;6.38;3.83;;;;;;;;;;5032401;28;20406;-83
2021/06/14 11:58:04;;;;;;;7.80;4.00;;;;;;;;;;5033853;28;20402;-82
2021/06/14 12:00:35;;;;;;;5.03;3.80;;;;;;;;;;5034267;28;20395;-82
2021/06/14 12:03:17;;;;;;;7.43;4.00;;;;;;;;;;5034948;28;20774;-82
2021/06/14 12:05:45;;;;;;;5.55;3.45;;;;;;;;;;5033695;28;20393;-82
2021/06/14 12:08:20;;;;;;;6.25;3.78;;;;;;;;;;5038332;28;20491;-82
2021/06/14 12:10:50;;;;;;;5.85;3.63;;;;;;;;;;5040769;28;20415;-82
2021/06/14 12:13:18;;;;;;;6.33;3.93;;;;;;;;;;5036128;28;20815;-82
2021/06/14 12:15:49;;;;;;;5.37;3.57;;;;;;;;;;5031542;28;20407;-82
2021/06/14 12:18:19;;;;;;;6.13;4.10;;;;;;;;;;5038324;28;20412;-82
2021/06/14 12:20:53;;;;;;;13.30;4.00;;;;;;;;;;5038913;28;20411;-82
2021/06/14 12:23:21;;;;;;;6.50;3.83;;;;;;;;;;5039397;28;20442;-82
2021/06/14 12:25:52;;;;;;;5.95;3.78;;;;;;;;;;5037625;28;20485;-82
2021/06/14 12:28:23;;;;;;;6.30;3.97;;;;;;;;;;5037350;28;20874;-82
2021/06/14 12:31:01;;;;;;;6.22;3.75;;;;;;;;;;5039002;28;20411;-83
2021/06/14 12:33:33;;;;;;;7.63;3.92;;;;;;;;;;5037468;28;20894;-83
2021/06/14 12:36:02;;;;;;;7.60;4.32;;;;;;;;;;5036479;28;20422;-81
2021/06/14 12:38:30;;;;;;;8.23;4.23;;;;;;;;;;5039906;28;20403;-83
2021/06/14 12:40:59;;;;;;;5.47;3.63;;;;;;;;;;5037966;28;20466;-83
2021/06/14 12:43:32;;;;;;;5.40;3.60;;;;;;;;;;5036077;28;20421;-82
2021/06/14 12:46:04;;;;;;;5.37;3.70;;;;;;;;;;5036266;28;20821;-81
2021/06/14 12:48:36;;;;;;;6.68;4.20;;;;;;;;;;5036380;28;20416;-81
2021/06/14 12:51:08;;;;;;;7.93;3.85;;;;;;;;;;5034822;28;21600;-81
2021/06/14 12:53:37;;;;;;;5.50;3.67;;;;;;;;;;5035572;28;20821;-81
2021/06/14 12:56:05;;;;;;;6.35;3.63;;;;;;;;;;5034739;28;20413;-80
2021/06/14 12:58:39;;;;;;;5.73;3.93;;;;;;;;;;5029923;28;20837;-80
2021/06/14 13:01:10;;;;;;;5.93;3.90;;;;;;;;;;5033137;28;20406;-81
2021/06/14 13:03:41;;;;;;;6.75;4.18;;;;;;;;;;5030112;28;20774;-81
2021/06/14 13:06:10;;;;;;;5.65;4.00;;;;;;;;;;5038203;28;20395;-82
2021/06/14 13:08:40;;;;;;;6.53;4.18;;;;;;;;;;5040518;28;20438;-82
2021/06/14 13:11:11;;;;;;;8.48;4.20;;;;;;;;;;5045069;28;20403;-80
2021/06/14 13:13:45;;;;;;;6.63;3.97;;;;;;;;;;5042460;28;20436;-82
2021/06/14 13:16:14;;;;;;;7.05;4.53;;;;;;;;;;5036532;28;20407;-82
2021/06/14 13:18:47;;;;;;;5.07;4.03;;;;;;;;;;5032133;28;21043;-81
2021/06/14 13:21:18;;;;;;;7.32;3.90;;;;;;;;;;5038988;28;20491;-81
2021/06/14 13:23:53;;;;;;;7.00;3.88;;;;;;;;;;5036313;28;20436;-82
2021/06/14 13:26:25;;;;;;;6.50;4.00;;;;;;;;;;5037146;28;20404;-83
2021/06/14 13:28:56;;;;;;;5.80;3.63;;;;;;;;;;5031398;28;20463;-83
2021/06/14 13:31:27;;;;;;;4.77;3.63;;;;;;;;;;5037179;28;20486;-83
2021/06/14 13:34:06;;;;;;;6.55;4.07;;;;;;;;;;5037482;28;20473;-83
2021/06/14 13:36:37;;;;;;;7.28;4.97;;;;;;;;;;5033100;28;20398;-83
2021/06/14 13:39:08;;;;;;;8.68;4.75;;;;;;;;;;5036901;28;20410;-83
2021/06/14 13:41:40;;;;;;;6.70;4.07;;;;;;;;;;5035798;28;20402;-83
2021/06/14 13:44:11;;;;;;;5.75;4.70;;;;;;;;;;5035452;28;20428;-83
2021/06/14 13:46:42;;;;;;;7.68;4.70;;;;;;;;;;5037145;28;20404;-83
2021/06/14 13:49:26;;;;;;;7.45;4.60;;;;;;;;;;5036372;28;20417;-83
2021/06/14 13:52:01;;;;;;;9.90;4.07;;;;;;;;;;5039497;28;20404;-83
2021/06/14 13:54:31;;;;;;;6.53;4.07;;;;;;;;;;5035080;28;20407;-83
2021/06/14 13:56:59;;;;;;;7.78;3.95;;;;;;;;;;5033537;28;20873;-82
2021/06/14 13:59:27;;;;;;;4.72;3.70;;;;;;;;;;5033871;28;20396;-83
2021/06/14 14:01:56;;;;;;;4.80;3.45;;;;;;;;;;5035216;28;20407;-82
2021/06/14 14:04:30;;;;;;;5.68;3.60;;;;;;;;;;5037567;28;20639;-83
2021/06/14 14:07:00;;;;;;;7.13;3.70;;;;;;;;;;5033878;28;20401;-83
2021/06/14 14:09:28;;;;;;;5.25;3.60;;;;;;;;;;5033575;28;20409;-83
2021/06/14 14:11:57;;;;;;;5.72;3.38;;;;;;;;;;5033909;28;20412;-83
2021/06/14 14:14:25;;;;;;;5.85;3.40;;;;;;;;;;5034010;28;20480;-83
2021/06/14 14:16:54;;;;;;;6.20;3.50;;;;;;;;;;5039903;28;20400;-83
2021/06/14 14:19:25;;;;;;;5.38;3.63;;;;;;;;;;5034932;28;20399;-83
2021/06/14 14:21:57;;;;;;;6.35;3.60;;;;;;;;;;5036725;28;20984;-83
2021/06/14 14:24:27;;;;;;;6.60;3.55;;;;;;;;;;5039815;28;20449;-82
2021/06/14 14:26:57;;;;;;;5.13;3.20;;;;;;;;;;5041693;28;20427;-82
2021/06/14 14:29:28;;;;;;;6.40;3.50;;;;;;;;;;5039918;28;20446;-81
2021/06/14 14:32:01;;;;;;;4.50;3.27;;;;;;;;;;5037626;28;20403;-84
2021/06/14 14:34:39;;;;;;;6.22;3.22;;;;;;;;;;5039859;28;20407;-84
2021/06/14 14:37:22;;;;;;;6.43;3.20;;;;;;;;;;5028288;28;20985;-82
2021/06/14 14:39:50;;;;;;;5.55;3.20;;;;;;;;;;5033508;28;20522;-81
2021/06/14 14:42:17;;;;;;;6.38;3.20;;;;;;;;;;5038316;28;20420;-81
2021/06/14 14:44:45;;;;;;;6.05;3.15;;;;;;;;;;5037990;28;20911;-83
2021/06/14 14:47:12;;;;;;;5.07;3.20;;;;;;;;;;5036138;28;20408;-81
2021/06/14 14:49:39;;;;;;;6.78;3.03;;;;;;;;;;5035912;28;20403;-83
2021/06/14 14:52:08;;;;;;;5.60;2.95;;;;;;;;;;5037157;28;20746;-83